createdAt,value
2022-10-25T00:00:02.315Z,100895.66
2022-10-25T00:01:25.673Z,100904.81
2022-10-25T00:02:32.568Z,100887.97
2022-10-25T00:03:34.413Z,100944.72
2022-10-25T00:04:36.161Z,100931.72
2022-10-25T00:05:40.293Z,100902.63
2022-10-25T00:06:42.820Z,100896.38
2022-10-25T00:07:44.762Z,100907.19
2022-10-25T00:08:46.741Z,100942.53
2022-10-25T00:09:48.486Z,100859.59
2022-10-25T00:10:50.215Z,100886.25
2022-10-25T00:11:51.916Z,100925.34
2022-10-25T00:12:53.726Z,100894.16
2022-10-25T00:13:57.667Z,100911.69
2022-10-25T00:15:04.003Z,100887.13
2022-10-25T00:16:05.930Z,100872.81
2022-10-25T00:17:07.668Z,100866.66
2022-10-25T00:18:09.464Z,100868.09
2022-10-25T00:19:12.095Z,100889.47
2022-10-25T00:20:14.065Z,100901.06
2022-10-25T00:21:15.841Z,100930.94
2022-10-25T00:22:17.613Z,100850.88
2022-10-25T00:23:19.434Z,100840.09
2022-10-25T00:24:21.326Z,100801.38
2022-10-25T00:25:23.156Z,100904.81
2022-10-25T00:26:25.242Z,100850.34
2022-10-25T00:27:27.126Z,100904.44
2022-10-25T00:28:29.002Z,100827.94
2022-10-25T00:29:32.189Z,100897.41
2022-10-25T00:30:34.311Z,100887.97
2022-10-25T00:31:37.618Z,100935.47
2022-10-25T00:32:39.368Z,100874.31
2022-10-25T00:33:42.751Z,100929.09
2022-10-25T00:34:44.466Z,100885.97
2022-10-25T00:35:46.244Z,100893.03
2022-10-25T00:36:48.045Z,100894.56
2022-10-25T00:37:50.634Z,100896.72
2022-10-25T00:38:53.555Z,100930.09
2022-10-25T00:39:55.272Z,100761.63
2022-10-25T00:40:57.007Z,100865.13
2022-10-25T00:41:58.761Z,100778.44
2022-10-25T00:43:00.560Z,100896.94
2022-10-25T00:44:36.453Z,100919.72
2022-10-25T00:45:38.240Z,100850.84
2022-10-25T00:46:39.979Z,100913.66
2022-10-25T00:47:56.551Z,100871.69
2022-10-25T00:49:03.931Z,100907.28
2022-10-25T00:50:20.956Z,100857.41
2022-10-25T00:51:26.189Z,100826.56
2022-10-25T00:52:31.771Z,100866.19
2022-10-25T00:53:37.026Z,100795.72
2022-10-25T00:54:49.520Z,100880.81
2022-10-25T00:56:08.704Z,100852.84
2022-10-25T00:57:17.974Z,100891.97
2022-10-25T00:58:24.308Z,100913.50
2022-10-25T00:59:28.026Z,100829.66
2022-10-25T01:00:30.030Z,100860.81
2022-10-25T01:01:32.528Z,100786.16
2022-10-25T01:02:35.348Z,100816.94
2022-10-25T01:03:39.952Z,100895.19
2022-10-25T01:04:43.104Z,100872.59
2022-10-25T01:05:45.235Z,100896.16
2022-10-25T01:06:50.143Z,100871.91
2022-10-25T01:07:52.141Z,100868.06
2022-10-25T01:08:55.812Z,100866.19
2022-10-25T01:09:58.174Z,100863.34
2022-10-25T01:11:00.351Z,100870.91
2022-10-25T01:12:02.385Z,100886.41
2022-10-25T01:13:04.913Z,100702.84
2022-10-25T01:14:09.267Z,100755.22
2022-10-25T01:15:11.896Z,100755.31
2022-10-25T01:16:34.985Z,100888.28
2022-10-25T01:18:09.151Z,100888.31
2022-10-25T01:19:42.392Z,100894.06
2022-10-25T01:20:53.000Z,100892.03
2022-10-25T01:22:11.957Z,100875.63
2022-10-25T01:23:44.962Z,100889.00
2022-10-25T01:25:05.007Z,100886.84
2022-10-25T01:26:42.519Z,100858.88
2022-10-25T01:28:05.332Z,100877.47
2022-10-25T01:29:44.916Z,100884.84
2022-10-25T01:31:16.703Z,100881.16
2022-10-25T01:32:22.711Z,100800.47
2022-10-25T01:33:53.870Z,100829.94
2022-10-25T01:35:14.236Z,100885.84
2022-10-25T01:36:58.016Z,100880.16
2022-10-25T01:38:24.979Z,100881.28
2022-10-25T01:39:32.866Z,100794.75
2022-10-25T01:40:51.908Z,100881.78
2022-10-25T01:42:01.241Z,100876.75
2022-10-25T01:43:45.024Z,100883.25
2022-10-25T01:45:07.646Z,100869.72
2022-10-25T01:46:21.222Z,100815.81
2022-10-25T01:47:31.269Z,100841.53
2022-10-25T01:48:39.987Z,100853.31
2022-10-25T01:49:53.214Z,100874.38
2022-10-25T01:50:55.201Z,100870.69
2022-10-25T01:51:56.966Z,100841.53
2022-10-25T01:52:58.660Z,100876.69
2022-10-25T01:54:00.424Z,100815.09
2022-10-25T01:55:05.248Z,100729.25
2022-10-25T01:56:07.267Z,100839.19
2022-10-25T01:57:34.606Z,100792.22
2022-10-25T01:58:39.525Z,100860.97
2022-10-25T01:59:47.194Z,100865.78
2022-10-25T02:01:16.515Z,100866.00
2022-10-25T02:02:33.075Z,100850.00
2022-10-25T02:03:52.766Z,100865.81
2022-10-25T02:05:04.480Z,100863.31
2022-10-25T02:06:17.995Z,100857.94
2022-10-25T02:07:25.634Z,100862.63
2022-10-25T02:08:57.017Z,100868.69
2022-10-25T02:09:58.719Z,100859.63
2022-10-25T02:11:11.764Z,100783.63
2022-10-25T02:12:25.120Z,100825.75
2022-10-25T02:13:49.091Z,100829.94
2022-10-25T02:15:07.704Z,100829.63
2022-10-25T02:16:16.978Z,100799.16
2022-10-25T02:17:25.356Z,100860.97
2022-10-25T02:19:42.685Z,100811.78
2022-10-25T02:20:47.045Z,100818.16
2022-10-25T02:21:50.577Z,100786.31
2022-10-25T02:22:54.812Z,100825.38
2022-10-25T02:24:00.250Z,100817.81
2022-10-25T02:25:02.564Z,100809.75
2022-10-25T02:26:07.447Z,100848.13
2022-10-25T02:27:12.076Z,100818.16
2022-10-25T02:28:16.301Z,100693.59
2022-10-25T02:29:19.813Z,100850.81
2022-10-25T02:30:21.678Z,100830.94
2022-10-25T02:31:26.004Z,100806.22
2022-10-25T02:32:27.928Z,100821.69
2022-10-25T02:33:29.964Z,100741.22
2022-10-25T02:34:33.061Z,100819.38
2022-10-25T02:35:34.806Z,100795.97
2022-10-25T02:36:36.592Z,100809.09
2022-10-25T02:37:38.297Z,100848.13
2022-10-25T02:38:40.967Z,100828.97
2022-10-25T02:39:44.101Z,100795.78
2022-10-25T02:40:46.323Z,100843.44
2022-10-25T02:41:48.247Z,100805.38
2022-10-25T02:42:49.986Z,100713.47
2022-10-25T02:43:51.779Z,100809.09
2022-10-25T02:44:53.517Z,100824.56
2022-10-25T02:45:55.265Z,100799.84
2022-10-25T02:46:57.146Z,100817.53
2022-10-25T02:47:58.837Z,100793.66
2022-10-25T02:49:00.591Z,100722.25
2022-10-25T02:50:02.536Z,100812.16
2022-10-25T02:51:06.357Z,100837.41
2022-10-25T02:52:08.065Z,100700.06
2022-10-25T02:53:09.879Z,100784.91
2022-10-25T02:54:11.633Z,100793.81
2022-10-25T02:55:13.436Z,100822.97
2022-10-25T02:56:19.418Z,100785.06
2022-10-25T02:57:21.300Z,100689.28
2022-10-25T02:58:23.006Z,100796.38
2022-10-25T02:59:24.733Z,100789.31
2022-10-25T03:00:26.794Z,100784.28
2022-10-25T03:01:28.708Z,100611.22
2022-10-25T03:02:30.464Z,100800.41
2022-10-25T03:03:33.613Z,100826.66
2022-10-25T03:04:35.380Z,100781.91
2022-10-25T03:05:37.186Z,100794.22
2022-10-25T03:06:38.936Z,100787.63
2022-10-25T03:07:40.628Z,100673.66
2022-10-25T03:08:43.332Z,100812.22
2022-10-25T03:09:45.020Z,100768.28
2022-10-25T03:10:46.952Z,100779.22
2022-10-25T03:11:49.491Z,100767.84
2022-10-25T03:12:51.187Z,100807.16
2022-10-25T03:13:52.862Z,100738.81
2022-10-25T03:14:54.561Z,100769.50
2022-10-25T03:15:56.542Z,100780.13
2022-10-25T03:16:58.295Z,100806.50
2022-10-25T03:18:00.009Z,100775.88
2022-10-25T03:19:01.736Z,100773.34
2022-10-25T03:20:03.708Z,100717.31
2022-10-25T03:21:06.088Z,100773.41
2022-10-25T03:22:07.780Z,100751.88
2022-10-25T03:23:10.429Z,100766.16
2022-10-25T03:24:12.286Z,100796.97
2022-10-25T03:25:14.253Z,100766.16
2022-10-25T03:26:16.075Z,100778.56
2022-10-25T03:27:18.014Z,100760.78
2022-10-25T03:28:19.764Z,100758.44
2022-10-25T03:29:21.530Z,100779.59
2022-10-25T03:30:23.317Z,100784.66
2022-10-25T03:31:25.281Z,100629.41
2022-10-25T03:32:26.978Z,100700.19
2022-10-25T03:33:28.888Z,100752.72
2022-10-25T03:34:30.738Z,100797.78
2022-10-25T03:35:32.414Z,100733.22
2022-10-25T03:36:34.126Z,100784.66
2022-10-25T03:37:36.017Z,100748.84
2022-10-25T03:38:37.742Z,100646.03
2022-10-25T03:39:39.445Z,100665.00
2022-10-25T03:40:41.745Z,100715.34
2022-10-25T03:41:43.553Z,100766.19
2022-10-25T03:42:45.750Z,100739.59
2022-10-25T03:43:47.505Z,100709.63
2022-10-25T03:44:49.428Z,100753.41
2022-10-25T03:45:51.160Z,100770.56
2022-10-25T03:46:52.925Z,100672.66
2022-10-25T03:47:54.676Z,100747.38
2022-10-25T03:48:56.567Z,100780.84
2022-10-25T03:49:58.441Z,100723.66
2022-10-25T03:51:00.207Z,100767.53
2022-10-25T03:52:04.243Z,100746.69
2022-10-25T03:54:09.284Z,100771.25
2022-10-25T03:55:11.105Z,100743.00
2022-10-25T03:56:12.813Z,100732.38
2022-10-25T03:57:14.757Z,100655.50
2022-10-25T03:58:16.985Z,100726.88
2022-10-25T03:59:18.784Z,100650.28
2022-10-25T04:00:20.644Z,100749.19
2022-10-25T04:01:22.610Z,100639.75
2022-10-25T04:02:24.473Z,100614.69
2022-10-25T04:03:26.176Z,100741.81
2022-10-25T04:04:27.983Z,100723.53
2022-10-25T04:05:31.227Z,100731.56
2022-10-25T04:06:32.963Z,100734.09
2022-10-25T04:07:34.787Z,100726.19
2022-10-25T04:08:38.115Z,100640.34
2022-10-25T04:09:39.942Z,100651.81
2022-10-25T04:10:41.660Z,100740.66
2022-10-25T04:11:43.437Z,100731.94
2022-10-25T04:12:46.727Z,100777.00
2022-10-25T04:13:48.622Z,100730.56
2022-10-25T04:14:50.415Z,100756.47
2022-10-25T04:15:52.141Z,100737.31
2022-10-25T04:16:54.106Z,100705.72
2022-10-25T04:17:55.922Z,100573.81
2022-10-25T04:18:59.175Z,100748.41
2022-10-25T04:20:00.860Z,100698.41
2022-10-25T04:21:02.749Z,100745.38
2022-10-25T04:22:04.836Z,100702.94
2022-10-25T04:23:06.593Z,100745.72
2022-10-25T04:24:08.424Z,100649.50
2022-10-25T04:25:10.368Z,100737.84
2022-10-25T04:26:14.692Z,100673.38
2022-10-25T04:27:16.438Z,100702.50
2022-10-25T04:28:18.157Z,100692.19
2022-10-25T04:29:20.164Z,100753.78
2022-10-25T04:30:22.126Z,100748.25
2022-10-25T04:31:24.184Z,100766.94
2022-10-25T04:32:25.977Z,100729.41
2022-10-25T04:33:27.821Z,100753.47
2022-10-25T04:34:29.541Z,100724.19
2022-10-25T04:35:31.468Z,100697.97
2022-10-25T04:36:33.289Z,100594.34
2022-10-25T04:37:35.069Z,100721.84
2022-10-25T04:38:36.871Z,100732.31
2022-10-25T04:39:38.570Z,100743.03
2022-10-25T04:40:40.633Z,100731.78
2022-10-25T04:41:42.342Z,100733.47
2022-10-25T04:42:44.314Z,100610.56
2022-10-25T04:43:46.728Z,100723.88
2022-10-25T04:44:48.432Z,100706.06
2022-10-25T04:45:50.157Z,100645.28
2022-10-25T04:46:52.133Z,100709.56
2022-10-25T04:47:53.823Z,100719.31
2022-10-25T04:48:55.769Z,100727.56
2022-10-25T04:49:57.581Z,100703.72
2022-10-25T04:51:00.457Z,100616.22
2022-10-25T04:52:02.204Z,100722.19
2022-10-25T04:53:04.979Z,100756.19
2022-10-25T04:54:07.006Z,100700.69
2022-10-25T04:55:08.986Z,100703.06
2022-10-25T04:56:13.113Z,100724.22
2022-10-25T04:57:15.125Z,100756.00
2022-10-25T04:58:16.866Z,100625.69
2022-10-25T04:59:18.681Z,100694.78
2022-10-25T05:00:20.472Z,100638.81
2022-10-25T05:01:22.307Z,100708.78
2022-10-25T05:02:24.535Z,100710.97
2022-10-25T05:03:26.322Z,100706.91
2022-10-25T05:04:28.079Z,100640.81
2022-10-25T05:05:29.874Z,100756.19
2022-10-25T05:06:31.666Z,100620.13
2022-10-25T05:07:33.564Z,100700.72
2022-10-25T05:08:35.676Z,100687.25
2022-10-25T05:09:37.348Z,100572.25
2022-10-25T05:10:39.053Z,100732.31
2022-10-25T05:11:40.794Z,100732.31
2022-10-25T05:12:42.484Z,100708.97
2022-10-25T05:13:48.008Z,100685.75
2022-10-25T05:14:49.721Z,100706.47
2022-10-25T05:15:58.237Z,100600.03
2022-10-25T05:17:00.401Z,100724.47
2022-10-25T05:18:02.213Z,100743.16
2022-10-25T05:19:04.108Z,100680.94
2022-10-25T05:20:06.594Z,100711.56
2022-10-25T05:21:09.816Z,100734.41
2022-10-25T05:22:11.630Z,100704.34
2022-10-25T05:23:13.499Z,100707.53
2022-10-25T05:24:15.430Z,100700.84
2022-10-25T05:25:17.391Z,100603.72
2022-10-25T05:26:20.900Z,100700.16
2022-10-25T05:27:22.573Z,100703.19
2022-10-25T05:28:24.307Z,100713.94
2022-10-25T05:29:26.087Z,100599.03
2022-10-25T05:30:27.896Z,100712.34
2022-10-25T05:31:30.483Z,100680.88
2022-10-25T05:32:32.195Z,100718.38
2022-10-25T05:33:34.454Z,100743.75
2022-10-25T05:34:36.224Z,100711.31
2022-10-25T05:35:38.008Z,100711.13
2022-10-25T05:36:39.928Z,100633.16
2022-10-25T05:37:41.672Z,100721.59
2022-10-25T05:38:43.749Z,100711.16
2022-10-25T05:39:45.540Z,100690.16
2022-10-25T05:42:06.421Z,100605.47
2022-10-25T05:43:08.147Z,100738.03
2022-10-25T05:44:10.216Z,100721.56
2022-10-25T05:45:11.939Z,100706.28
2022-10-25T05:46:18.083Z,100686.09
2022-10-25T05:47:19.975Z,100701.56
2022-10-25T05:48:21.774Z,100631.34
2022-10-25T05:49:23.574Z,100593.69
2022-10-25T05:50:25.313Z,100698.69
2022-10-25T05:51:37.446Z,100735.66
2022-10-25T05:52:43.301Z,100698.31
2022-10-25T05:53:50.156Z,100694.31
2022-10-25T05:54:51.853Z,100689.06
2022-10-25T05:55:53.565Z,100713.31
2022-10-25T05:56:55.278Z,100659.66
2022-10-25T05:57:57.145Z,100643.22
2022-10-25T05:59:02.692Z,100729.41
2022-10-25T06:00:05.174Z,100694.97
2022-10-25T06:01:11.119Z,100683.34
2022-10-25T06:02:13.065Z,100678.31
2022-10-25T06:03:14.820Z,100695.97
2022-10-25T06:04:17.574Z,100710.56
2022-10-25T06:05:19.356Z,100700.84
2022-10-25T06:06:22.064Z,100724.66
2022-10-25T06:07:23.880Z,100733.41
2022-10-25T06:08:25.834Z,100710.38
2022-10-25T06:09:27.684Z,100707.69
2022-10-25T06:10:29.395Z,100708.88
2022-10-25T06:11:31.701Z,100704.66
2022-10-25T06:12:33.654Z,100695.78
2022-10-25T06:13:36.806Z,100721.28
2022-10-25T06:14:38.585Z,100704.84
2022-10-25T06:15:40.335Z,100704.97
2022-10-25T06:16:42.109Z,100711.06
2022-10-25T06:17:44.076Z,100705.16
2022-10-25T06:18:46.279Z,100738.09
2022-10-25T06:19:48.006Z,100691.56
2022-10-25T06:20:49.799Z,100719.25
2022-10-25T06:21:54.508Z,100695.78
2022-10-25T06:22:56.237Z,100597.53
2022-10-25T06:23:59.437Z,100706.16
2022-10-25T06:25:01.134Z,100726.97
2022-10-25T06:26:08.752Z,100655.97
2022-10-25T06:27:10.745Z,100672.41
2022-10-25T06:28:12.540Z,100626.56
2022-10-25T06:29:14.347Z,100721.13
2022-10-25T06:30:16.175Z,100700.44
2022-10-25T06:31:19.118Z,100634.59
2022-10-25T06:32:20.948Z,100589.28
2022-10-25T06:33:25.721Z,100675.75
2022-10-25T06:34:29.814Z,100726.59
2022-10-25T06:35:31.698Z,100726.59
2022-10-25T06:36:33.505Z,100699.41
2022-10-25T06:37:35.294Z,100699.41
2022-10-25T06:38:37.106Z,100699.59
2022-10-25T06:39:38.832Z,100680.28
2022-10-25T06:40:40.615Z,100691.38
2022-10-25T06:41:42.417Z,100684.66
2022-10-25T06:42:44.441Z,100646.53
2022-10-25T06:43:47.197Z,100719.53
2022-10-25T06:44:48.896Z,100693.19
2022-10-25T06:45:50.604Z,100662.50
2022-10-25T06:47:16.002Z,100600.69
2022-10-25T06:48:14.165Z,100563.06
2022-10-25T06:49:15.849Z,100553.31
2022-10-25T06:50:17.686Z,100697.38
2022-10-25T06:51:20.652Z,100665.63
2022-10-25T06:52:22.466Z,100656.09
2022-10-25T06:53:24.310Z,100608.03
2022-10-25T06:54:26.856Z,100706.47
2022-10-25T06:55:28.880Z,100531.69
2022-10-25T06:56:30.590Z,100688.31
2022-10-25T06:57:32.326Z,100694.03
2022-10-25T06:58:35.353Z,100706.06
2022-10-25T06:59:37.085Z,100682.94
2022-10-25T07:00:38.822Z,100656.25
2022-10-25T07:01:40.844Z,100673.88
2022-10-25T07:02:42.680Z,100673.53
2022-10-25T07:03:46.161Z,100676.22
2022-10-25T07:04:47.904Z,100661.44
2022-10-25T07:05:49.695Z,100556.53
2022-10-25T07:06:55.151Z,100707.75
2022-10-25T07:07:57.334Z,100689.13
2022-10-25T07:09:00.286Z,100641.31
2022-10-25T07:10:02.083Z,100624.69
2022-10-25T07:11:05.167Z,100665.97
2022-10-25T07:12:12.294Z,100705.06
2022-10-25T07:13:14.502Z,100624.50
2022-10-25T07:14:16.298Z,100688.63
2022-10-25T07:16:21.373Z,100703.38
2022-10-25T07:17:23.069Z,100590.91
2022-10-25T07:18:24.789Z,100705.06
2022-10-25T07:19:26.570Z,100677.03
2022-10-25T07:20:28.313Z,100693.66
2022-10-25T07:21:31.716Z,100563.38
2022-10-25T07:22:33.635Z,100684.25
2022-10-25T07:23:42.087Z,100661.44
2022-10-25T07:24:43.977Z,100594.28
2022-10-25T07:25:45.919Z,100555.66
2022-10-25T07:26:47.672Z,100670.31
2022-10-25T07:27:49.674Z,100697.84
2022-10-25T07:28:53.347Z,100694.28
2022-10-25T07:29:55.129Z,100658.56
2022-10-25T07:30:56.823Z,100653.16
2022-10-25T07:31:58.575Z,100591.59
2022-10-25T07:33:00.375Z,100663.78
2022-10-25T07:34:04.752Z,100549.28
2022-10-25T07:35:06.669Z,100640.97
2022-10-25T07:36:12.280Z,100696.00
2022-10-25T07:37:14.309Z,100562.53
2022-10-25T07:38:16.840Z,100675.72
2022-10-25T07:39:18.653Z,100686.25
2022-10-25T07:40:20.431Z,100709.47
2022-10-25T07:41:22.320Z,100542.41
2022-10-25T07:42:24.122Z,100681.88
2022-10-25T07:43:27.009Z,100694.28
2022-10-25T07:44:28.708Z,100660.44
2022-10-25T07:45:31.320Z,100684.09
2022-10-25T07:46:33.193Z,100661.41
2022-10-25T07:47:34.887Z,100576.66
2022-10-25T07:48:37.452Z,100677.88
2022-10-25T07:49:40.087Z,100630.88
2022-10-25T07:50:42.338Z,100674.03
2022-10-25T07:51:44.400Z,100694.13
2022-10-25T07:52:46.627Z,100569.25
2022-10-25T07:53:48.520Z,100701.38
2022-10-25T07:54:50.240Z,100628.03
2022-10-25T07:55:53.209Z,100644.31
2022-10-25T07:56:54.935Z,100536.53
2022-10-25T07:58:01.714Z,100685.44
2022-10-25T07:59:03.429Z,100682.22
2022-10-25T08:00:06.712Z,100658.41
2022-10-25T08:01:10.290Z,100643.78
2022-10-25T08:02:12.549Z,100614.25
2022-10-25T08:03:16.043Z,100570.91
2022-10-25T08:04:17.895Z,100688.13
2022-10-25T08:05:19.617Z,100648.31
2022-10-25T08:06:23.470Z,100690.63
2022-10-25T08:07:25.579Z,100662.75
2022-10-25T08:08:28.435Z,100656.72
2022-10-25T08:09:38.557Z,100623.47
2022-10-25T08:10:44.116Z,100688.59
2022-10-25T08:11:45.802Z,100704.75
2022-10-25T08:12:49.223Z,100669.31
2022-10-25T08:13:51.084Z,100623.84
2022-10-25T08:14:52.814Z,100653.69
2022-10-25T08:15:56.336Z,100688.75
2022-10-25T08:16:58.029Z,100657.38
2022-10-25T08:18:00.840Z,100562.88
2022-10-25T08:19:02.612Z,100661.75
2022-10-25T08:20:04.771Z,100670.44
2022-10-25T08:21:06.562Z,100652.00
2022-10-25T08:22:08.967Z,100549.47
2022-10-25T08:23:10.743Z,100664.59
2022-10-25T08:24:12.556Z,100659.75
2022-10-25T08:25:14.478Z,100580.16
2022-10-25T08:26:16.374Z,100647.63
2022-10-25T08:27:18.119Z,100644.94
2022-10-25T08:28:20.445Z,100632.00
2022-10-25T08:29:22.168Z,100676.81
2022-10-25T08:30:24.012Z,100646.63
2022-10-25T08:31:25.827Z,100633.00
2022-10-25T08:32:28.609Z,100595.91
2022-10-25T08:33:30.669Z,100653.69
2022-10-25T08:34:33.287Z,100604.28
2022-10-25T08:35:35.250Z,100665.06
2022-10-25T08:36:37.263Z,100641.22
2022-10-25T08:37:38.988Z,100570.72
2022-10-25T08:38:40.780Z,100601.59
2022-10-25T08:39:42.522Z,100642.91
2022-10-25T08:40:57.402Z,100558.81
2022-10-25T08:42:01.548Z,100624.75
2022-10-25T08:43:09.019Z,100679.97
2022-10-25T08:44:29.155Z,100637.16
2022-10-25T08:45:42.123Z,100675.06
2022-10-25T08:47:07.136Z,100580.28
2022-10-25T08:48:17.835Z,100637.44
2022-10-25T08:49:28.729Z,100685.50
2022-10-25T08:50:39.845Z,100682.13
2022-10-25T08:51:45.018Z,100692.91
2022-10-25T08:52:53.752Z,100684.16
2022-10-25T08:54:00.628Z,100636.19
2022-10-25T08:55:06.016Z,100679.81
2022-10-25T08:56:16.594Z,100543.56
2022-10-25T08:57:28.004Z,100629.75
2022-10-25T08:58:38.314Z,100670.06
2022-10-25T08:59:43.210Z,100683.16
2022-10-25T09:00:48.700Z,100634.66
2022-10-25T09:01:59.335Z,100654.59
2022-10-25T09:03:02.571Z,100657.13
2022-10-25T09:04:04.530Z,100632.13
2022-10-25T09:05:23.003Z,100644.38
2022-10-25T09:06:48.130Z,100678.44
2022-10-25T09:08:10.911Z,100640.66
2022-10-25T09:09:16.289Z,100676.41
2022-10-25T09:10:39.039Z,100683.16
2022-10-25T09:11:56.023Z,100674.53
2022-10-25T09:13:08.473Z,100680.94
2022-10-25T09:14:16.837Z,100640.47
2022-10-25T09:15:30.489Z,100675.06
2022-10-25T09:16:50.196Z,100646.53
2022-10-25T09:17:53.812Z,100660.81
2022-10-25T09:18:59.952Z,100600.38
2022-10-25T09:20:11.428Z,100675.22
2022-10-25T09:21:23.295Z,100676.91
2022-10-25T09:22:31.802Z,100663.69
2022-10-25T09:23:33.656Z,100620.72
2022-10-25T09:24:45.547Z,100662.66
2022-10-25T09:25:53.090Z,100670.69
2022-10-25T09:27:05.062Z,100666.34
2022-10-25T09:28:21.588Z,100625.56
2022-10-25T09:29:41.200Z,100672.19
2022-10-25T09:30:44.722Z,100674.72
2022-10-25T09:31:51.959Z,100602.56
2022-10-25T09:33:01.424Z,100637.13
2022-10-25T09:34:06.406Z,100614.31
2022-10-25T09:35:26.072Z,100582.09
2022-10-25T09:36:33.537Z,100519.50
2022-10-25T09:37:57.227Z,100663.75
2022-10-25T09:39:05.096Z,100634.38
2022-10-25T09:40:13.630Z,100645.69
2022-10-25T09:41:25.713Z,100630.38
2022-10-25T09:42:41.368Z,100665.63
2022-10-25T09:43:53.271Z,100643.13
2022-10-25T09:45:00.113Z,100674.72
2022-10-25T09:46:11.015Z,100638.09
2022-10-25T09:47:25.662Z,100638.75
2022-10-25T09:48:46.684Z,100608.91
2022-10-25T09:50:14.475Z,100657.00
2022-10-25T09:51:25.345Z,100657.19
2022-10-25T09:52:43.029Z,100624.16
2022-10-25T09:53:46.975Z,100511.94
2022-10-25T09:54:55.894Z,100601.34
2022-10-25T09:56:00.301Z,100655.19
2022-10-25T09:57:02.169Z,100648.00
2022-10-25T09:58:04.080Z,100630.22
2022-10-25T09:59:05.889Z,100592.50
2022-10-25T10:00:12.699Z,100609.28
2022-10-25T10:01:25.197Z,100588.25
2022-10-25T10:02:27.742Z,100632.41
2022-10-25T10:03:32.652Z,100611.91
2022-10-25T10:04:37.908Z,100635.75
2022-10-25T10:05:49.329Z,100651.53
2022-10-25T10:06:53.711Z,100586.78
2022-10-25T10:07:55.438Z,100538.09
2022-10-25T10:09:06.687Z,100638.63
2022-10-25T10:10:16.419Z,100651.84
2022-10-25T10:11:19.535Z,100653.53
2022-10-25T10:12:31.000Z,100620.97
2022-10-25T10:13:47.504Z,100650.81
2022-10-25T10:14:58.935Z,100612.22
2022-10-25T10:16:11.180Z,100619.94
2022-10-25T10:17:17.288Z,100654.34
2022-10-25T10:18:33.941Z,100651.66
2022-10-25T10:19:35.634Z,100617.63
2022-10-25T10:20:37.412Z,100655.56
2022-10-25T10:21:44.230Z,100653.03
2022-10-25T10:24:00.816Z,100612.94
2022-10-25T10:25:03.487Z,100642.13
2022-10-25T10:26:22.756Z,100644.13
2022-10-25T10:27:26.844Z,100586.47
2022-10-25T10:28:28.886Z,100624.97
2022-10-25T10:29:39.169Z,100653.88
2022-10-25T10:30:42.019Z,100595.00
2022-10-25T10:31:47.593Z,100610.75
2022-10-25T10:32:57.161Z,100621.31
2022-10-25T10:33:59.565Z,100625.34
2022-10-25T10:35:03.843Z,100602.22
2022-10-25T10:36:26.366Z,100654.53
2022-10-25T10:37:30.070Z,100607.56
2022-10-25T10:38:31.836Z,100580.06
2022-10-25T10:39:33.949Z,100651.19
2022-10-25T10:40:35.666Z,100599.34
2022-10-25T10:41:51.996Z,100615.13
2022-10-25T10:42:57.033Z,100576.34
2022-10-25T10:44:21.051Z,100640.22
2022-10-25T10:45:22.804Z,100625.47
2022-10-25T10:46:25.887Z,100622.13
2022-10-25T10:47:33.924Z,100576.00
2022-10-25T10:48:41.999Z,100596.63
2022-10-25T10:49:45.246Z,100508.53
2022-10-25T10:50:51.410Z,100607.88
2022-10-25T10:51:53.640Z,100611.06
2022-10-25T10:53:06.440Z,100638.53
2022-10-25T10:54:23.400Z,100640.88
2022-10-25T10:55:37.020Z,100635.31
2022-10-25T10:56:39.536Z,100603.78
2022-10-25T10:57:44.583Z,100579.00
2022-10-25T10:58:53.495Z,100604.81
2022-10-25T10:59:57.011Z,100545.78
2022-10-25T11:01:06.280Z,100634.38
2022-10-25T11:02:21.479Z,100579.16
2022-10-25T11:03:48.904Z,100629.94
2022-10-25T11:05:01.150Z,100598.72
2022-10-25T11:06:06.651Z,100635.50
2022-10-25T11:07:14.765Z,100636.50
2022-10-25T11:08:20.749Z,100590.03
2022-10-25T11:09:24.982Z,100610.16
2022-10-25T11:10:29.211Z,100626.94
2022-10-25T11:11:31.027Z,100595.06
2022-10-25T11:12:32.749Z,100621.91
2022-10-25T11:13:34.560Z,100515.56
2022-10-25T11:14:36.464Z,100587.88
2022-10-25T11:16:21.068Z,100619.81
2022-10-25T11:17:37.691Z,100588.13
2022-10-25T11:18:53.166Z,100602.06
2022-10-25T11:20:19.375Z,100615.25
2022-10-25T11:21:49.659Z,100590.28
2022-10-25T11:23:24.118Z,100589.25
2022-10-25T11:24:43.964Z,100611.03
2022-10-25T11:25:57.754Z,100528.75
2022-10-25T11:27:08.020Z,100605.50
2022-10-25T11:28:50.764Z,100605.63
2022-10-25T11:29:58.073Z,100612.03
2022-10-25T11:31:10.644Z,100613.41
2022-10-25T11:32:47.665Z,100612.56
2022-10-25T11:34:19.957Z,100611.03
2022-10-25T11:35:49.189Z,100593.47
2022-10-25T11:37:09.755Z,100534.25
2022-10-25T11:38:31.680Z,100562.88
2022-10-25T11:39:53.763Z,100562.38
2022-10-25T11:41:29.216Z,100608.69
2022-10-25T11:42:44.433Z,100594.63
2022-10-25T11:43:59.707Z,100586.56
2022-10-25T11:45:13.311Z,100603.00
2022-10-25T11:46:30.210Z,100599.28
2022-10-25T11:47:43.072Z,100526.41
2022-10-25T11:49:15.485Z,100603.00
2022-10-25T11:50:33.062Z,100601.63
2022-10-25T11:51:53.244Z,100610.38
2022-10-25T11:53:25.927Z,100597.63
2022-10-25T11:54:36.615Z,100605.34
2022-10-25T11:56:13.861Z,100608.69
2022-10-25T11:57:33.848Z,100512.13
2022-10-25T11:58:38.397Z,100613.41
2022-10-25T12:00:16.369Z,100592.59
2022-10-25T12:01:45.613Z,100598.56
2022-10-25T12:03:09.546Z,100605.63
2022-10-25T12:04:40.254Z,100608.03
2022-10-25T12:06:12.510Z,100604.13
2022-10-25T12:07:43.341Z,100606.00
2022-10-25T12:09:11.634Z,100551.47
2022-10-25T12:10:37.302Z,100603.09
2022-10-25T12:11:50.117Z,100563.72
2022-10-25T12:13:20.917Z,100602.28
2022-10-25T12:14:30.605Z,100583.22
2022-10-25T12:15:42.873Z,100602.16
2022-10-25T12:16:45.807Z,100543.00
2022-10-25T12:17:47.807Z,100534.00
2022-10-25T12:19:23.062Z,100597.97
2022-10-25T12:20:28.948Z,100561.78
2022-10-25T12:21:43.426Z,100574.84
2022-10-25T12:22:49.363Z,100605.03
2022-10-25T12:23:54.499Z,100547.84
2022-10-25T12:25:02.675Z,100558.75
2022-10-25T12:26:14.971Z,100578.38
2022-10-25T12:27:19.691Z,100589.25
2022-10-25T12:28:33.499Z,100602.72
2022-10-25T12:29:42.470Z,100465.00
2022-10-25T12:30:44.638Z,100598.81
2022-10-25T12:31:52.384Z,100591.06
2022-10-25T12:33:03.804Z,100589.25
2022-10-25T12:34:16.085Z,100592.59
2022-10-25T12:35:23.170Z,100598.81
2022-10-25T12:36:38.452Z,100595.94
2022-10-25T12:37:49.033Z,100584.88
2022-10-25T12:38:51.525Z,100445.72
2022-10-25T12:39:53.372Z,100592.59
2022-10-25T12:41:00.789Z,100514.16
2022-10-25T12:42:12.497Z,100586.34
2022-10-25T12:43:32.844Z,100563.72
2022-10-25T12:44:46.638Z,100586.84
2022-10-25T12:46:28.896Z,100530.13